Time,TemperatureF,DewpointF,PressureIn,WindDirection,WindDirectionDegrees,WindSpeedMPH,WindSpeedGustMPH,Humidity,HourlyPrecipIn,Conditions,Clouds,dailyrainin,SoftwareType,DateUTC
2013-10-07 00:00:00,77.9,75.4,29.89,South,180,3.0,-999.0,92,0.00,,,0.13,Wunderground v.1.15,2013-10-07 04:00:00,
2013-10-07 00:05:00,77.9,75.4,29.89,South,180,3.0,-999.0,92,0.00,,,0.13,Wunderground v.1.15,2013-10-07 04:05:00,
2013-10-07 00:10:00,77.9,75.4,29.89,South,180,3.0,-999.0,92,0.00,,,0.13,Wunderground v.1.15,2013-10-07 04:10:00,
2013-10-07 00:15:00,77.9,75.4,29.89,South,180,3.0,-999.0,92,0.00,,,0.13,Wunderground v.1.15,2013-10-07 04:15:00,
2013-10-07 00:20:00,77.9,75.4,29.89,South,180,3.0,-999.0,92,0.00,,,0.13,Wunderground v.1.15,2013-10-07 04:20:00,
2013-10-07 00:25:00,77.7,75.2,29.89,SW,225,2.0,-999.0,92,0.00,,,0.13,Wunderground v.1.15,2013-10-07 04:25:00,
2013-10-07 00:30:00,77.7,75.2,29.89,SW,225,2.0,-999.0,92,0.00,,,0.13,Wunderground v.1.15,2013-10-07 04:30:00,
2013-10-07 00:35:00,77.7,75.2,29.89,SW,225,2.0,-999.0,92,0.00,,,0.13,Wunderground v.1.15,2013-10-07 04:35:00,
2013-10-07 00:40:00,77.4,75.2,29.89,South,180,3.0,-999.0,93,0.00,,,0.13,Wunderground v.1.15,2013-10-07 04:40:00,
2013-10-07 00:45:00,77.4,75.2,29.89,South,180,3.0,-999.0,93,0.00,,,0.13,Wunderground v.1.15,2013-10-07 04:45:00,
2013-10-07 00:50:00,77.4,75.2,29.89,South,180,3.0,-999.0,93,0.00,,,0.13,Wunderground v.1.15,2013-10-07 04:50:00,
2013-10-07 00:55:00,77.0,74.5,29.88,South,180,4.0,-999.0,92,0.00,,,0.13,Wunderground v.1.15,2013-10-07 04:55:00,
2013-10-07 01:00:00,77.0,74.5,29.88,South,180,4.0,-999.0,92,0.00,,,0.13,Wunderground v.1.15,2013-10-07 05:00:00,
2013-10-07 01:05:00,77.0,74.5,29.88,South,180,4.0,-999.0,92,0.00,,,0.13,Wunderground v.1.15,2013-10-07 05:05:00,
2013-10-07 01:10:00,76.6,74.4,29.88,South,180,3.0,-999.0,93,0.00,,,0.13,Wunderground v.1.15,2013-10-07 05:10:00,
2013-10-07 01:15:00,76.6,74.4,29.88,South,180,3.0,-999.0,93,0.00,,,0.13,Wunderground v.1.15,2013-10-07 05:15:00,
2013-10-07 01:20:00,76.6,74.4,29.88,South,180,3.0,-999.0,93,0.00,,,0.13,Wunderground v.1.15,2013-10-07 05:20:00,
2013-10-07 01:25:00,76.4,74.2,29.88,South,180,1.0,-999.0,93,0.00,,,0.13,Wunderground v.1.15,2013-10-07 05:25:00,
2013-10-07 01:30:00,76.4,74.2,29.88,South,180,1.0,-999.0,93,0.00,,,0.13,Wunderground v.1.15,2013-10-07 05:30:00,
2013-10-07 01:35:00,76.4,74.2,29.88,South,180,1.0,-999.0,93,0.00,,,0.13,Wunderground v.1.15,2013-10-07 05:35:00,
2013-10-07 01:40:00,76.1,73.9,29.88,South,180,3.0,-999.0,93,0.00,,,0.13,Wunderground v.1.15,2013-10-07 05:40:00,
2013-10-07 01:45:00,76.1,73.9,29.88,South,180,3.0,-999.0,93,0.00,,,0.13,Wunderground v.1.15,2013-10-07 05:45:00,
2013-10-07 01:50:00,76.1,73.9,29.88,South,180,3.0,-999.0,93,0.00,,,0.13,Wunderground v.1.15,2013-10-07 05:50:00,
2013-10-07 01:55:00,76.1,73.6,29.88,SSW,203,2.0,-999.0,92,0.00,,,0.13,Wunderground v.1.15,2013-10-07 05:55:00,
2013-10-07 02:00:00,76.1,73.6,29.88,SSW,203,2.0,-999.0,92,0.00,,,0.13,Wunderground v.1.15,2013-10-07 06:00:00,
2013-10-07 02:05:00,76.1,73.6,29.88,SSW,203,2.0,-999.0,92,0.00,,,0.13,Wunderground v.1.15,2013-10-07 06:05:00,
2013-10-07 02:10:00,75.8,73.3,29.87,South,180,2.0,-999.0,92,0.00,,,0.13,Wunderground v.1.15,2013-10-07 06:10:00,
2013-10-07 02:15:00,75.8,73.3,29.87,South,180,2.0,-999.0,92,0.00,,,0.13,Wunderground v.1.15,2013-10-07 06:15:00,
2013-10-07 02:20:00,75.8,73.3,29.87,South,180,2.0,-999.0,92,0.00,,,0.13,Wunderground v.1.15,2013-10-07 06:20:00,
2013-10-07 02:25:00,75.4,72.9,29.87,South,180,1.0,-999.0,92,0.00,,,0.13,Wunderground v.1.15,2013-10-07 06:25:00,
2013-10-07 02:30:00,75.4,72.9,29.87,South,180,1.0,-999.0,92,0.00,,,0.13,Wunderground v.1.15,2013-10-07 06:30:00,
2013-10-07 02:35:00,75.4,72.9,29.87,South,180,1.0,-999.0,92,0.00,,,0.13,Wunderground v.1.15,2013-10-07 06:35:00,
2013-10-07 02:40:00,75.2,72.7,29.86,SSE,158,2.0,-999.0,92,0.00,,,0.13,Wunderground v.1.15,2013-10-07 06:40:00,
2013-10-07 02:45:00,75.2,72.7,29.86,SSE,158,2.0,-999.0,92,0.00,,,0.13,Wunderground v.1.15,2013-10-07 06:45:00,
2013-10-07 02:50:00,75.2,72.7,29.86,SSE,158,2.0,-999.0,92,0.00,,,0.13,Wunderground v.1.15,2013-10-07 06:50:00,
2013-10-07 02:55:00,75.3,72.5,29.86,South,180,2.0,-999.0,91,0.00,,,0.13,Wunderground v.1.15,2013-10-07 06:55:00,
2013-10-07 03:00:00,75.3,72.5,29.86,South,180,2.0,-999.0,91,0.00,,,0.13,Wunderground v.1.15,2013-10-07 07:00:00,
2013-10-07 03:05:00,75.3,72.5,29.86,South,180,2.0,-999.0,91,0.00,,,0.13,Wunderground v.1.15,2013-10-07 07:05:00,
2013-10-07 03:10:00,75.0,72.5,29.85,SW,225,1.0,-999.0,92,0.00,,,0.13,Wunderground v.1.15,2013-10-07 07:10:00,
2013-10-07 03:15:00,75.0,72.5,29.85,SW,225,1.0,-999.0,92,0.00,,,0.13,Wunderground v.1.15,2013-10-07 07:15:00,
2013-10-07 03:20:00,75.0,72.5,29.85,SW,225,1.0,-999.0,92,0.00,,,0.13,Wunderground v.1.15,2013-10-07 07:20:00,
2013-10-07 03:25:00,74.4,71.9,29.85,SW,225,1.0,-999.0,92,0.00,,,0.13,Wunderground v.1.15,2013-10-07 07:25:00,
2013-10-07 03:30:00,74.4,71.9,29.85,SW,225,1.0,-999.0,92,0.00,,,0.13,Wunderground v.1.15,2013-10-07 07:30:00,
2013-10-07 03:35:00,74.4,71.9,29.85,SW,225,1.0,-999.0,92,0.00,,,0.13,Wunderground v.1.15,2013-10-07 07:35:00,
2013-10-07 03:40:00,-999.9,-99.9,29.84,N/A,-737280,0.0,-999.0,-32768,0.00,,,0.13,Wunderground v.1.15,2013-10-07 07:40:00,
2013-10-07 03:45:00,-999.9,-99.9,29.84,N/A,-737280,0.0,-999.0,-32768,0.00,,,0.13,Wunderground v.1.15,2013-10-07 07:45:00,
2013-10-07 03:50:00,-999.9,-99.9,29.84,N/A,-737280,0.0,-999.0,-32768,0.00,,,0.13,Wunderground v.1.15,2013-10-07 07:50:00,
2013-10-07 03:55:00,-999.9,-99.9,29.84,N/A,-737280,0.0,-999.0,-32768,0.00,,,0.13,Wunderground v.1.15,2013-10-07 07:55:00,
2013-10-07 04:00:00,-999.9,-99.9,29.84,N/A,-737280,0.0,-999.0,-32768,0.00,,,0.13,Wunderground v.1.15,2013-10-07 08:00:00,
2013-10-07 04:05:00,-999.9,-99.9,29.84,N/A,-737280,0.0,-999.0,-32768,0.00,,,0.13,Wunderground v.1.15,2013-10-07 08:05:00,
2013-10-07 04:10:00,-999.9,-99.9,29.84,N/A,-737280,0.0,-999.0,-32768,0.00,,,0.13,Wunderground v.1.15,2013-10-07 08:10:00,
2013-10-07 04:15:00,-999.9,-99.9,29.84,N/A,-737280,0.0,-999.0,-32768,0.00,,,0.13,Wunderground v.1.15,2013-10-07 08:15:00,
2013-10-07 04:20:00,-999.9,-99.9,29.84,N/A,-737280,0.0,-999.0,-32768,0.00,,,0.13,Wunderground v.1.15,2013-10-07 08:20:00,
2013-10-07 04:25:00,-999.9,-99.9,29.84,N/A,-737280,0.0,-999.0,-32768,0.00,,,0.13,Wunderground v.1.15,2013-10-07 08:25:00,
2013-10-07 04:30:00,-999.9,-99.9,29.84,N/A,-737280,0.0,-999.0,-32768,0.00,,,0.13,Wunderground v.1.15,2013-10-07 08:30:00,
2013-10-07 04:35:00,-999.9,-99.9,29.84,N/A,-737280,0.0,-999.0,-32768,0.00,,,0.13,Wunderground v.1.15,2013-10-07 08:35:00,
2013-10-07 04:40:00,-999.9,-99.9,29.84,N/A,-737280,0.0,-999.0,-32768,0.00,,,0.13,Wunderground v.1.15,2013-10-07 08:40:00,
2013-10-07 04:45:00,-999.9,-99.9,29.84,N/A,-737280,0.0,-999.0,-32768,0.00,,,0.13,Wunderground v.1.15,2013-10-07 08:45:00,
2013-10-07 04:50:00,-999.9,-99.9,29.84,N/A,-737280,0.0,-999.0,-32768,0.00,,,0.13,Wunderground v.1.15,2013-10-07 08:50:00,
2013-10-07 04:55:00,-999.9,-99.9,29.84,N/A,-737280,0.0,-999.0,-32768,0.00,,,0.13,Wunderground v.1.15,2013-10-07 08:55:00,
2013-10-07 05:00:00,-999.9,-99.9,29.84,N/A,-737280,0.0,-999.0,-32768,0.00,,,0.13,Wunderground v.1.15,2013-10-07 09:00:00,
2013-10-07 05:05:00,-999.9,-99.9,29.84,N/A,-737280,0.0,-999.0,-32768,0.00,,,0.13,Wunderground v.1.15,2013-10-07 09:05:00,
2013-10-07 05:10:00,-999.9,-99.9,29.83,N/A,-737280,0.0,-999.0,-32768,0.00,,,0.13,Wunderground v.1.15,2013-10-07 09:10:00,
2013-10-07 05:15:00,-999.9,-99.9,29.83,N/A,-737280,0.0,-999.0,-32768,0.00,,,0.13,Wunderground v.1.15,2013-10-07 09:15:00,
2013-10-07 05:20:00,-999.9,-99.9,29.83,N/A,-737280,0.0,-999.0,-32768,0.00,,,0.13,Wunderground v.1.15,2013-10-07 09:20:00,
2013-10-07 05:25:00,-999.9,-99.9,29.84,N/A,-737280,0.0,-999.0,-32768,0.00,,,0.13,Wunderground v.1.15,2013-10-07 09:25:00,
2013-10-07 05:30:00,-999.9,-99.9,29.84,N/A,-737280,0.0,-999.0,-32768,0.00,,,0.13,Wunderground v.1.15,2013-10-07 09:30:00,
2013-10-07 05:35:00,-999.9,-99.9,29.84,N/A,-737280,0.0,-999.0,-32768,0.00,,,0.13,Wunderground v.1.15,2013-10-07 09:35:00,
2013-10-07 05:40:00,-999.9,-99.9,29.84,N/A,-737280,0.0,-999.0,-32768,0.00,,,0.13,Wunderground v.1.15,2013-10-07 09:40:00,
2013-10-07 05:45:00,-999.9,-99.9,29.84,N/A,-737280,0.0,-999.0,-32768,0.00,,,0.13,Wunderground v.1.15,2013-10-07 09:45:00,
2013-10-07 05:50:00,-999.9,-99.9,29.84,N/A,-737280,0.0,-999.0,-32768,0.00,,,0.13,Wunderground v.1.15,2013-10-07 09:50:00,
2013-10-07 05:55:00,-999.9,-99.9,29.84,N/A,-737280,0.0,-999.0,-32768,0.00,,,0.13,Wunderground v.1.15,2013-10-07 09:55:00,
2013-10-07 06:00:00,-999.9,-99.9,29.84,N/A,-737280,0.0,-999.0,-32768,0.00,,,0.13,Wunderground v.1.15,2013-10-07 10:00:00,
2013-10-07 06:05:00,-999.9,-99.9,29.84,N/A,-737280,0.0,-999.0,-32768,0.00,,,0.13,Wunderground v.1.15,2013-10-07 10:05:00,
2013-10-07 06:10:00,-999.9,-99.9,29.84,N/A,-737280,0.0,-999.0,-32768,0.00,,,0.13,Wunderground v.1.15,2013-10-07 10:10:00,
2013-10-07 06:15:00,-999.9,-99.9,29.84,N/A,-737280,0.0,-999.0,-32768,0.00,,,0.13,Wunderground v.1.15,2013-10-07 10:15:00,
2013-10-07 06:20:00,-999.9,-99.9,29.84,N/A,-737280,0.0,-999.0,-32768,0.00,,,0.13,Wunderground v.1.15,2013-10-07 10:20:00,
2013-10-07 06:25:00,-999.9,-99.9,29.84,N/A,-737280,0.0,-999.0,-32768,0.00,,,0.13,Wunderground v.1.15,2013-10-07 10:25:00,
2013-10-07 06:30:00,-999.9,-99.9,29.84,N/A,-737280,0.0,-999.0,-32768,0.00,,,0.13,Wunderground v.1.15,2013-10-07 10:30:00,
2013-10-07 06:35:00,-999.9,-99.9,29.84,N/A,-737280,0.0,-999.0,-32768,0.00,,,0.13,Wunderground v.1.15,2013-10-07 10:35:00,
2013-10-07 06:40:00,-999.9,-99.9,29.84,N/A,-737280,0.0,-999.0,-32768,0.00,,,0.13,Wunderground v.1.15,2013-10-07 10:40:00,
2013-10-07 06:45:00,-999.9,-99.9,29.84,N/A,-737280,0.0,-999.0,-32768,0.00,,,0.13,Wunderground v.1.15,2013-10-07 10:45:00,
2013-10-07 06:50:00,-999.9,-99.9,29.84,N/A,-737280,0.0,-999.0,-32768,0.00,,,0.13,Wunderground v.1.15,2013-10-07 10:50:00,
2013-10-07 06:55:00,-999.9,-99.9,29.84,N/A,-737280,0.0,-999.0,-32768,0.00,,,0.13,Wunderground v.1.15,2013-10-07 10:55:00,
2013-10-07 07:00:00,-999.9,-99.9,29.84,N/A,-737280,0.0,-999.0,-32768,0.00,,,0.13,Wunderground v.1.15,2013-10-07 11:00:00,
2013-10-07 07:05:00,-999.9,-99.9,29.84,N/A,-737280,0.0,-999.0,-32768,0.00,,,0.13,Wunderground v.1.15,2013-10-07 11:05:00,
2013-10-07 07:10:00,-999.9,-99.9,29.84,N/A,-737280,0.0,-999.0,-32768,0.00,,,0.13,Wunderground v.1.15,2013-10-07 11:10:00,
2013-10-07 07:15:00,-999.9,-99.9,29.84,N/A,-737280,0.0,-999.0,-32768,0.00,,,0.13,Wunderground v.1.15,2013-10-07 11:15:00,
2013-10-07 07:20:00,-999.9,-99.9,29.84,N/A,-737280,0.0,-999.0,-32768,0.00,,,0.13,Wunderground v.1.15,2013-10-07 11:20:00,
2013-10-07 07:25:00,-999.9,-99.9,29.84,N/A,-737280,0.0,-999.0,-32768,0.00,,,0.13,Wunderground v.1.15,2013-10-07 11:25:00,
2013-10-07 07:30:00,-999.9,-99.9,29.84,N/A,-737280,0.0,-999.0,-32768,0.00,,,0.13,Wunderground v.1.15,2013-10-07 11:30:00,
2013-10-07 07:35:00,-999.9,-99.9,29.84,N/A,-737280,0.0,-999.0,-32768,0.00,,,0.13,Wunderground v.1.15,2013-10-07 11:35:00,
2013-10-07 07:40:00,-999.9,-99.9,29.84,N/A,-737280,0.0,-999.0,-32768,0.00,,,0.13,Wunderground v.1.15,2013-10-07 11:40:00,
2013-10-07 07:45:00,-999.9,-99.9,29.84,N/A,-737280,0.0,-999.0,-32768,0.00,,,0.13,Wunderground v.1.15,2013-10-07 11:45:00,
2013-10-07 07:50:00,-999.9,-99.9,29.84,N/A,-737280,0.0,-999.0,-32768,0.00,,,0.13,Wunderground v.1.15,2013-10-07 11:50:00,
2013-10-07 07:55:00,74.6,72.8,29.84,South,180,2.0,-999.0,94,0.00,,,0.13,Wunderground v.1.15,2013-10-07 11:55:00,
2013-10-07 08:00:00,74.6,72.8,29.84,South,180,2.0,-999.0,94,0.00,,,0.13,Wunderground v.1.15,2013-10-07 12:00:00,
2013-10-07 08:05:00,74.6,72.8,29.84,South,180,2.0,-999.0,94,0.00,,,0.13,Wunderground v.1.15,2013-10-07 12:05:00,
2013-10-07 08:10:00,75.1,73.3,29.85,South,180,0.0,-999.0,94,0.00,,,0.13,Wunderground v.1.15,2013-10-07 12:10:00,
2013-10-07 08:15:00,75.1,73.3,29.85,South,180,0.0,-999.0,94,0.00,,,0.13,Wunderground v.1.15,2013-10-07 12:15:00,
2013-10-07 08:20:00,75.1,73.3,29.85,South,180,0.0,-999.0,94,0.00,,,0.13,Wunderground v.1.15,2013-10-07 12:20:00,
2013-10-07 08:25:00,77.6,75.1,29.86,South,180,0.0,-999.0,92,0.00,,,0.13,Wunderground v.1.15,2013-10-07 12:25:00,
2013-10-07 08:30:00,77.6,75.1,29.86,South,180,0.0,-999.0,92,0.00,,,0.13,Wunderground v.1.15,2013-10-07 12:30:00,
2013-10-07 08:35:00,77.6,75.1,29.86,South,180,0.0,-999.0,92,0.00,,,0.13,Wunderground v.1.15,2013-10-07 12:35:00,
2013-10-07 08:40:00,78.2,74.7,29.86,South,180,3.0,-999.0,89,0.00,,,0.13,Wunderground v.1.15,2013-10-07 12:40:00,
2013-10-07 08:45:00,78.2,74.7,29.86,South,180,3.0,-999.0,89,0.00,,,0.13,Wunderground v.1.15,2013-10-07 12:45:00,
2013-10-07 08:50:00,78.2,74.7,29.86,South,180,3.0,-999.0,89,0.00,,,0.13,Wunderground v.1.15,2013-10-07 12:50:00,
2013-10-07 08:55:00,79.1,74.9,29.86,South,180,3.0,-999.0,87,0.00,,,0.13,Wunderground v.1.15,2013-10-07 12:55:00,
2013-10-07 09:00:00,79.1,74.9,29.86,South,180,3.0,-999.0,87,0.00,,,0.13,Wunderground v.1.15,2013-10-07 13:00:00,
2013-10-07 09:05:00,79.1,74.9,29.86,South,180,3.0,-999.0,87,0.00,,,0.13,Wunderground v.1.15,2013-10-07 13:05:00,
2013-10-07 09:10:00,79.3,75.1,29.87,South,180,4.0,-999.0,87,0.00,,,0.13,Wunderground v.1.15,2013-10-07 13:10:00,
2013-10-07 09:15:00,79.3,75.1,29.87,South,180,4.0,-999.0,87,0.00,,,0.13,Wunderground v.1.15,2013-10-07 13:15:00,
2013-10-07 09:20:00,79.3,75.1,29.87,South,180,4.0,-999.0,87,0.00,,,0.13,Wunderground v.1.15,2013-10-07 13:20:00,
2013-10-07 09:25:00,79.0,74.8,29.87,SSW,203,4.0,-999.0,87,0.00,,,0.13,Wunderground v.1.15,2013-10-07 13:25:00,
2013-10-07 09:30:00,79.0,74.8,29.87,SSW,203,4.0,-999.0,87,0.00,,,0.13,Wunderground v.1.15,2013-10-07 13:30:00,
2013-10-07 09:35:00,79.0,74.8,29.87,SSW,203,4.0,-999.0,87,0.00,,,0.13,Wunderground v.1.15,2013-10-07 13:35:00,
2013-10-07 09:40:00,79.7,75.5,29.87,SW,225,1.0,-999.0,87,0.00,,,0.13,Wunderground v.1.15,2013-10-07 13:40:00,
2013-10-07 09:45:00,79.7,75.5,29.87,SW,225,1.0,-999.0,87,0.00,,,0.13,Wunderground v.1.15,2013-10-07 13:45:00,
2013-10-07 09:50:00,79.7,75.5,29.87,SW,225,1.0,-999.0,87,0.00,,,0.13,Wunderground v.1.15,2013-10-07 13:50:00,
2013-10-07 09:55:00,81.0,75.7,29.87,South,180,1.0,-999.0,84,0.00,,,0.13,Wunderground v.1.15,2013-10-07 13:55:00,
2013-10-07 10:00:00,81.0,75.7,29.87,South,180,1.0,-999.0,84,0.00,,,0.13,Wunderground v.1.15,2013-10-07 14:00:00,
2013-10-07 10:05:00,81.0,75.7,29.87,South,180,1.0,-999.0,84,0.00,,,0.13,Wunderground v.1.15,2013-10-07 14:05:00,
2013-10-07 10:10:00,81.7,75.7,29.86,South,180,3.0,-999.0,82,0.00,,,0.13,Wunderground v.1.15,2013-10-07 14:10:00,
2013-10-07 10:15:00,81.7,75.7,29.86,South,180,3.0,-999.0,82,0.00,,,0.13,Wunderground v.1.15,2013-10-07 14:15:00,
2013-10-07 10:20:00,81.7,75.7,29.86,South,180,3.0,-999.0,82,0.00,,,0.13,Wunderground v.1.15,2013-10-07 14:20:00,
2013-10-07 10:25:00,81.1,75.1,29.86,SSW,203,4.0,-999.0,82,0.00,,,0.13,Wunderground v.1.15,2013-10-07 14:25:00,
2013-10-07 10:30:00,81.1,75.1,29.86,SSW,203,4.0,-999.0,82,0.00,,,0.13,Wunderground v.1.15,2013-10-07 14:30:00,
2013-10-07 10:35:00,81.1,75.1,29.86,SSW,203,4.0,-999.0,82,0.00,,,0.13,Wunderground v.1.15,2013-10-07 14:35:00,
2013-10-07 10:40:00,81.4,75.4,29.85,SSW,203,2.0,-999.0,82,0.00,,,0.13,Wunderground v.1.15,2013-10-07 14:40:00,
2013-10-07 10:45:00,81.4,75.4,29.85,SSW,203,2.0,-999.0,82,0.00,,,0.13,Wunderground v.1.15,2013-10-07 14:45:00,
2013-10-07 10:50:00,81.4,75.4,29.85,SSW,203,2.0,-999.0,82,0.00,,,0.13,Wunderground v.1.15,2013-10-07 14:50:00,
2013-10-07 10:55:00,82.3,75.5,29.85,SW,225,1.0,-999.0,80,0.00,,,0.13,Wunderground v.1.15,2013-10-07 14:55:00,
2013-10-07 11:00:00,82.3,75.5,29.85,SW,225,1.0,-999.0,80,0.00,,,0.13,Wunderground v.1.15,2013-10-07 15:00:00,
2013-10-07 11:05:00,82.3,75.5,29.85,SW,225,1.0,-999.0,80,0.00,,,0.13,Wunderground v.1.15,2013-10-07 15:05:00,
2013-10-07 11:10:00,83.5,76.3,29.85,WSW,248,1.0,-999.0,79,0.00,,,0.13,Wunderground v.1.15,2013-10-07 15:10:00,
2013-10-07 11:15:00,83.5,76.3,29.85,WSW,248,1.0,-999.0,79,0.00,,,0.13,Wunderground v.1.15,2013-10-07 15:15:00,
2013-10-07 11:20:00,83.5,76.3,29.85,WSW,248,1.0,-999.0,79,0.00,,,0.13,Wunderground v.1.15,2013-10-07 15:20:00,
2013-10-07 11:25:00,84.8,76.4,29.85,SSW,203,2.0,-999.0,76,0.00,,,0.13,Wunderground v.1.15,2013-10-07 15:25:00,
2013-10-07 11:30:00,84.8,76.4,29.85,SSW,203,2.0,-999.0,76,0.00,,,0.13,Wunderground v.1.15,2013-10-07 15:30:00,
2013-10-07 11:35:00,84.8,76.4,29.85,SSW,203,2.0,-999.0,76,0.00,,,0.13,Wunderground v.1.15,2013-10-07 15:35:00,
2013-10-07 11:40:00,85.5,75.0,29.85,SW,225,4.0,-999.0,71,0.00,,,0.13,Wunderground v.1.15,2013-10-07 15:40:00,
2013-10-07 11:45:00,85.5,75.0,29.85,SW,225,4.0,-999.0,71,0.00,,,0.13,Wunderground v.1.15,2013-10-07 15:45:00,
2013-10-07 11:50:00,85.5,75.0,29.85,SW,225,4.0,-999.0,71,0.00,,,0.13,Wunderground v.1.15,2013-10-07 15:50:00,
2013-10-07 11:55:00,83.9,74.7,29.85,SSW,203,5.0,-999.0,74,0.00,,,0.13,Wunderground v.1.15,2013-10-07 15:55:00,
2013-10-07 12:00:00,83.9,74.7,29.85,SSW,203,5.0,-999.0,74,0.00,,,0.13,Wunderground v.1.15,2013-10-07 16:00:00,
2013-10-07 12:05:00,83.9,74.7,29.85,SSW,203,5.0,-999.0,74,0.00,,,0.13,Wunderground v.1.15,2013-10-07 16:05:00,
2013-10-07 12:10:00,84.0,75.6,29.84,SSW,203,4.0,-999.0,76,0.00,,,0.13,Wunderground v.1.15,2013-10-07 16:10:00,
2013-10-07 12:15:00,84.0,75.6,29.84,SSW,203,4.0,-999.0,76,0.00,,,0.13,Wunderground v.1.15,2013-10-07 16:15:00,
2013-10-07 12:20:00,84.0,75.6,29.84,SSW,203,4.0,-999.0,76,0.00,,,0.13,Wunderground v.1.15,2013-10-07 16:20:00,
2013-10-07 12:25:00,84.6,75.0,29.84,SSW,203,2.0,-999.0,73,0.00,,,0.13,Wunderground v.1.15,2013-10-07 16:25:00,
2013-10-07 12:30:00,84.6,75.0,29.84,SSW,203,2.0,-999.0,73,0.00,,,0.13,Wunderground v.1.15,2013-10-07 16:30:00,
2013-10-07 12:35:00,84.6,75.0,29.84,SSW,203,2.0,-999.0,73,0.00,,,0.13,Wunderground v.1.15,2013-10-07 16:35:00,
2013-10-07 12:40:00,85.2,74.7,29.83,WSW,248,3.0,-999.0,71,0.00,,,0.13,Wunderground v.1.15,2013-10-07 16:40:00,
2013-10-07 12:45:00,85.2,74.7,29.83,WSW,248,3.0,-999.0,71,0.00,,,0.13,Wunderground v.1.15,2013-10-07 16:45:00,
2013-10-07 12:50:00,85.2,74.7,29.83,WSW,248,3.0,-999.0,71,0.00,,,0.13,Wunderground v.1.15,2013-10-07 16:50:00,
2013-10-07 12:55:00,85.5,73.3,29.82,SSW,203,2.0,-999.0,67,0.00,,,0.13,Wunderground v.1.15,2013-10-07 16:55:00,
2013-10-07 13:00:00,85.5,73.3,29.82,SSW,203,2.0,-999.0,67,0.00,,,0.13,Wunderground v.1.15,2013-10-07 17:00:00,
2013-10-07 13:05:00,85.5,73.3,29.82,SSW,203,2.0,-999.0,67,0.00,,,0.13,Wunderground v.1.15,2013-10-07 17:05:00,
2013-10-07 13:10:00,85.5,74.6,29.83,WSW,248,2.0,-999.0,70,0.00,,,0.13,Wunderground v.1.15,2013-10-07 17:10:00,
2013-10-07 13:15:00,85.5,74.6,29.83,WSW,248,2.0,-999.0,70,0.00,,,0.13,Wunderground v.1.15,2013-10-07 17:15:00,
2013-10-07 13:20:00,85.5,74.6,29.83,WSW,248,2.0,-999.0,70,0.00,,,0.13,Wunderground v.1.15,2013-10-07 17:20:00,
2013-10-07 13:25:00,86.3,74.0,29.82,West,270,2.0,-999.0,67,0.00,,,0.13,Wunderground v.1.15,2013-10-07 17:25:00,
2013-10-07 13:30:00,86.3,74.0,29.82,West,270,2.0,-999.0,67,0.00,,,0.13,Wunderground v.1.15,2013-10-07 17:30:00,
2013-10-07 13:35:00,86.3,74.0,29.82,West,270,2.0,-999.0,67,0.00,,,0.13,Wunderground v.1.15,2013-10-07 17:35:00,
2013-10-07 13:40:00,87.6,74.4,29.81,West,270,2.0,-999.0,65,0.00,,,0.13,Wunderground v.1.15,2013-10-07 17:40:00,
2013-10-07 13:45:00,87.6,74.4,29.81,West,270,2.0,-999.0,65,0.00,,,0.13,Wunderground v.1.15,2013-10-07 17:45:00,
2013-10-07 13:50:00,87.6,74.4,29.81,West,270,2.0,-999.0,65,0.00,,,0.13,Wunderground v.1.15,2013-10-07 17:50:00,
2013-10-07 13:55:00,89.8,74.1,29.80,South,180,1.0,-999.0,60,0.00,,,0.13,Wunderground v.1.15,2013-10-07 17:55:00,
2013-10-07 14:00:00,89.8,74.1,29.80,South,180,1.0,-999.0,60,0.00,,,0.13,Wunderground v.1.15,2013-10-07 18:00:00,
2013-10-07 14:05:00,89.8,74.1,29.80,South,180,1.0,-999.0,60,0.00,,,0.13,Wunderground v.1.15,2013-10-07 18:05:00,
2013-10-07 14:10:00,85.5,73.7,29.80,NE,45,5.0,-999.0,68,0.00,,,0.13,Wunderground v.1.15,2013-10-07 18:10:00,
2013-10-07 14:15:00,85.5,73.7,29.80,NE,45,5.0,-999.0,68,0.00,,,0.13,Wunderground v.1.15,2013-10-07 18:15:00,
2013-10-07 14:20:00,85.5,73.7,29.80,NE,45,5.0,-999.0,68,0.00,,,0.13,Wunderground v.1.15,2013-10-07 18:20:00,
2013-10-07 14:25:00,87.9,74.7,29.78,NE,45,2.0,-999.0,65,0.00,,,0.13,Wunderground v.1.15,2013-10-07 18:25:00,
2013-10-07 14:30:00,87.9,74.7,29.78,NE,45,2.0,-999.0,65,0.00,,,0.13,Wunderground v.1.15,2013-10-07 18:30:00,
2013-10-07 14:35:00,87.9,74.7,29.78,NE,45,2.0,-999.0,65,0.00,,,0.13,Wunderground v.1.15,2013-10-07 18:35:00,
2013-10-07 14:40:00,84.7,75.9,29.77,NNE,23,10.0,-999.0,75,0.00,,,0.13,Wunderground v.1.15,2013-10-07 18:40:00,
2013-10-07 14:45:00,84.7,75.9,29.77,NNE,23,10.0,-999.0,75,0.00,,,0.13,Wunderground v.1.15,2013-10-07 18:45:00,
2013-10-07 14:50:00,84.7,75.9,29.77,NNE,23,10.0,-999.0,75,0.00,,,0.13,Wunderground v.1.15,2013-10-07 18:50:00,
2013-10-07 14:55:00,83.4,75.8,29.77,NE,45,9.0,-999.0,78,0.00,,,0.13,Wunderground v.1.15,2013-10-07 18:55:00,
2013-10-07 15:00:00,83.4,75.8,29.77,NE,45,9.0,-999.0,78,0.00,,,0.13,Wunderground v.1.15,2013-10-07 19:00:00,
2013-10-07 15:05:00,83.4,75.8,29.77,NE,45,9.0,-999.0,78,0.00,,,0.13,Wunderground v.1.15,2013-10-07 19:05:00,
2013-10-07 15:10:00,83.2,75.6,29.77,NE,45,8.0,-999.0,78,0.00,,,0.13,Wunderground v.1.15,2013-10-07 19:10:00,
2013-10-07 15:15:00,83.2,75.6,29.77,NE,45,8.0,-999.0,78,0.00,,,0.13,Wunderground v.1.15,2013-10-07 19:15:00,
2013-10-07 15:20:00,83.2,75.6,29.77,NE,45,8.0,-999.0,78,0.00,,,0.13,Wunderground v.1.15,2013-10-07 19:20:00,
2013-10-07 15:25:00,82.4,76.0,29.77,NE,45,8.0,-999.0,81,0.00,,,0.13,Wunderground v.1.15,2013-10-07 19:25:00,
2013-10-07 15:30:00,82.4,76.0,29.77,NE,45,8.0,-999.0,81,0.00,,,0.13,Wunderground v.1.15,2013-10-07 19:30:00,
2013-10-07 15:35:00,82.4,76.0,29.77,NE,45,8.0,-999.0,81,0.00,,,0.13,Wunderground v.1.15,2013-10-07 19:35:00,
2013-10-07 15:40:00,81.2,75.9,29.77,East,90,7.0,-999.0,84,0.00,,,0.13,Wunderground v.1.15,2013-10-07 19:40:00,
2013-10-07 15:45:00,81.2,75.9,29.77,East,90,7.0,-999.0,84,0.00,,,0.13,Wunderground v.1.15,2013-10-07 19:45:00,
2013-10-07 15:50:00,81.2,75.9,29.77,East,90,7.0,-999.0,84,0.00,,,0.13,Wunderground v.1.15,2013-10-07 19:50:00,
2013-10-07 15:55:00,80.2,76.0,29.79,ESE,113,8.0,-999.0,87,0.01,,,0.13,Wunderground v.1.15,2013-10-07 19:55:00,
2013-10-07 16:00:00,80.2,76.0,29.79,ESE,113,8.0,-999.0,87,0.01,,,0.13,Wunderground v.1.15,2013-10-07 20:00:00,
2013-10-07 16:05:00,80.2,76.0,29.79,ESE,113,8.0,-999.0,87,0.01,,,0.13,Wunderground v.1.15,2013-10-07 20:05:00,
2013-10-07 16:10:00,79.0,76.1,29.78,ESE,113,6.0,-999.0,91,0.08,,,0.13,Wunderground v.1.15,2013-10-07 20:10:00,
2013-10-07 16:15:00,79.0,76.1,29.78,ESE,113,6.0,-999.0,91,0.08,,,0.13,Wunderground v.1.15,2013-10-07 20:15:00,
2013-10-07 16:20:00,79.0,76.1,29.78,ESE,113,6.0,-999.0,91,0.08,,,0.13,Wunderground v.1.15,2013-10-07 20:20:00,
2013-10-07 16:25:00,79.2,76.7,29.78,SE,135,2.0,-999.0,92,0.13,,,0.13,Wunderground v.1.15,2013-10-07 20:25:00,
2013-10-07 16:30:00,79.2,76.7,29.78,SE,135,2.0,-999.0,92,0.13,,,0.13,Wunderground v.1.15,2013-10-07 20:30:00,
2013-10-07 16:35:00,79.2,76.7,29.78,SE,135,2.0,-999.0,92,0.13,,,0.13,Wunderground v.1.15,2013-10-07 20:35:00,
2013-10-07 16:40:00,79.3,76.8,29.78,ENE,68,5.0,-999.0,92,0.13,,,0.13,Wunderground v.1.15,2013-10-07 20:40:00,
2013-10-07 16:45:00,79.3,76.8,29.78,ENE,68,5.0,-999.0,92,0.13,,,0.13,Wunderground v.1.15,2013-10-07 20:45:00,
2013-10-07 16:50:00,79.3,76.8,29.78,ENE,68,5.0,-999.0,92,0.13,,,0.13,Wunderground v.1.15,2013-10-07 20:50:00,
2013-10-07 16:55:00,79.9,77.0,29.77,ESE,113,5.0,-999.0,91,0.12,,,0.13,Wunderground v.1.15,2013-10-07 20:55:00,
2013-10-07 17:00:00,79.9,77.0,29.77,ESE,113,5.0,-999.0,91,0.12,,,0.13,Wunderground v.1.15,2013-10-07 21:00:00,
2013-10-07 17:05:00,79.9,77.0,29.77,ESE,113,5.0,-999.0,91,0.12,,,0.13,Wunderground v.1.15,2013-10-07 21:05:00,
2013-10-07 17:10:00,80.3,76.1,29.78,ESE,113,5.0,-999.0,87,0.05,,,0.13,Wunderground v.1.15,2013-10-07 21:10:00,
2013-10-07 17:15:00,80.3,76.1,29.78,ESE,113,5.0,-999.0,87,0.05,,,0.13,Wunderground v.1.15,2013-10-07 21:15:00,
2013-10-07 17:20:00,80.3,76.1,29.78,ESE,113,5.0,-999.0,87,0.05,,,0.13,Wunderground v.1.15,2013-10-07 21:20:00,
2013-10-07 17:25:00,79.4,75.2,29.78,ESE,113,7.0,-999.0,87,0.00,,,0.13,Wunderground v.1.15,2013-10-07 21:25:00,
2013-10-07 17:30:00,79.4,75.2,29.78,ESE,113,7.0,-999.0,87,0.00,,,0.13,Wunderground v.1.15,2013-10-07 21:30:00,
2013-10-07 17:35:00,79.4,75.2,29.78,ESE,113,7.0,-999.0,87,0.00,,,0.13,Wunderground v.1.15,2013-10-07 21:35:00,
2013-10-07 17:40:00,78.3,74.5,29.79,ESE,113,9.0,-999.0,88,0.00,,,0.13,Wunderground v.1.15,2013-10-07 21:40:00,
2013-10-07 17:45:00,78.3,74.5,29.79,ESE,113,9.0,-999.0,88,0.00,,,0.13,Wunderground v.1.15,2013-10-07 21:45:00,
2013-10-07 17:50:00,78.3,74.5,29.79,ESE,113,9.0,-999.0,88,0.00,,,0.13,Wunderground v.1.15,2013-10-07 21:50:00,
2013-10-07 17:55:00,78.0,74.5,29.79,ESE,113,6.0,-999.0,89,0.00,,,0.13,Wunderground v.1.15,2013-10-07 21:55:00,
2013-10-07 18:00:00,78.0,74.5,29.79,ESE,113,6.0,-999.0,89,0.00,,,0.13,Wunderground v.1.15,2013-10-07 22:00:00,
2013-10-07 18:05:00,78.0,74.5,29.79,ESE,113,6.0,-999.0,89,0.00,,,0.13,Wunderground v.1.15,2013-10-07 22:05:00,
2013-10-07 18:10:00,77.7,74.5,29.78,East,90,3.0,-999.0,90,0.00,,,0.13,Wunderground v.1.15,2013-10-07 22:10:00,
2013-10-07 18:15:00,77.7,74.5,29.78,East,90,3.0,-999.0,90,0.00,,,0.13,Wunderground v.1.15,2013-10-07 22:15:00,
2013-10-07 18:20:00,77.7,74.5,29.78,East,90,3.0,-999.0,90,0.00,,,0.13,Wunderground v.1.15,2013-10-07 22:20:00,
2013-10-07 18:25:00,77.5,74.3,29.79,East,90,3.0,-999.0,90,0.00,,,0.13,Wunderground v.1.15,2013-10-07 22:25:00,
2013-10-07 18:30:00,77.5,74.3,29.79,East,90,3.0,-999.0,90,0.00,,,0.13,Wunderground v.1.15,2013-10-07 22:30:00,
2013-10-07 18:35:00,77.5,74.3,29.79,East,90,3.0,-999.0,90,0.00,,,0.13,Wunderground v.1.15,2013-10-07 22:35:00,
2013-10-07 18:40:00,77.1,74.3,29.79,ENE,68,3.0,-999.0,91,0.00,,,0.13,Wunderground v.1.15,2013-10-07 22:40:00,
2013-10-07 18:45:00,77.1,74.3,29.79,ENE,68,3.0,-999.0,91,0.00,,,0.13,Wunderground v.1.15,2013-10-07 22:45:00,
2013-10-07 18:50:00,77.1,74.3,29.79,ENE,68,3.0,-999.0,91,0.00,,,0.13,Wunderground v.1.15,2013-10-07 22:50:00,
2013-10-07 18:55:00,76.8,74.3,29.79,ENE,68,5.0,-999.0,92,0.00,,,0.13,Wunderground v.1.15,2013-10-07 22:55:00,
2013-10-07 19:00:00,76.8,74.3,29.79,ENE,68,5.0,-999.0,92,0.00,,,0.13,Wunderground v.1.15,2013-10-07 23:00:00,
2013-10-07 19:05:00,76.8,74.3,29.79,ENE,68,5.0,-999.0,92,0.00,,,0.13,Wunderground v.1.15,2013-10-07 23:05:00,
2013-10-07 19:10:00,76.3,73.5,29.80,ENE,68,6.0,-999.0,91,0.00,,,0.13,Wunderground v.1.15,2013-10-07 23:10:00,
2013-10-07 19:15:00,76.3,73.5,29.80,ENE,68,6.0,-999.0,91,0.00,,,0.13,Wunderground v.1.15,2013-10-07 23:15:00,
2013-10-07 19:20:00,76.3,73.5,29.80,ENE,68,6.0,-999.0,91,0.00,,,0.13,Wunderground v.1.15,2013-10-07 23:20:00,
2013-10-07 19:25:00,76.1,73.3,29.81,East,90,5.0,-999.0,91,0.00,,,0.13,Wunderground v.1.15,2013-10-07 23:25:00,
2013-10-07 19:30:00,76.1,73.3,29.81,East,90,5.0,-999.0,91,0.00,,,0.13,Wunderground v.1.15,2013-10-07 23:30:00,
2013-10-07 19:35:00,76.1,73.3,29.81,East,90,5.0,-999.0,91,0.00,,,0.13,Wunderground v.1.15,2013-10-07 23:35:00,
2013-10-07 19:40:00,76.0,73.5,29.81,ENE,68,4.0,-999.0,92,0.00,,,0.13,Wunderground v.1.15,2013-10-07 23:40:00,
2013-10-07 19:45:00,76.0,73.5,29.81,ENE,68,4.0,-999.0,92,0.00,,,0.13,Wunderground v.1.15,2013-10-07 23:45:00,
2013-10-07 19:50:00,76.0,73.5,29.81,ENE,68,4.0,-999.0,92,0.00,,,0.13,Wunderground v.1.15,2013-10-07 23:50:00,
2013-10-07 19:55:00,75.7,73.5,29.81,ENE,68,4.0,-999.0,93,0.00,,,0.13,Wunderground v.1.15,2013-10-07 23:55:00,
2013-10-07 20:00:00,75.7,73.5,29.81,ENE,68,4.0,-999.0,93,0.00,,,0.13,Wunderground v.1.15,2013-10-08 00:00:00,
2013-10-07 20:05:00,75.7,73.5,29.81,ENE,68,4.0,-999.0,93,0.00,,,0.13,Wunderground v.1.15,2013-10-08 00:05:00,
2013-10-07 20:10:00,75.6,73.4,29.81,East,90,2.0,-999.0,93,0.00,,,0.13,Wunderground v.1.15,2013-10-08 00:10:00,
2013-10-07 20:15:00,75.6,73.4,29.81,East,90,2.0,-999.0,93,0.00,,,0.13,Wunderground v.1.15,2013-10-08 00:15:00,
2013-10-07 20:20:00,75.6,73.4,29.81,East,90,2.0,-999.0,93,0.00,,,0.13,Wunderground v.1.15,2013-10-08 00:20:00,
2013-10-07 20:25:00,75.4,73.2,29.81,East,90,4.0,-999.0,93,0.00,,,0.13,Wunderground v.1.15,2013-10-08 00:25:00,
2013-10-07 20:30:00,75.4,73.2,29.81,East,90,4.0,-999.0,93,0.00,,,0.13,Wunderground v.1.15,2013-10-08 00:30:00,
2013-10-07 20:35:00,75.4,73.2,29.81,East,90,4.0,-999.0,93,0.00,,,0.13,Wunderground v.1.15,2013-10-08 00:35:00,
2013-10-07 20:40:00,75.1,73.3,29.82,ENE,68,5.0,-999.0,94,0.00,,,0.13,Wunderground v.1.15,2013-10-08 00:40:00,
2013-10-07 20:45:00,75.1,73.3,29.82,ENE,68,5.0,-999.0,94,0.00,,,0.13,Wunderground v.1.15,2013-10-08 00:45:00,
2013-10-07 20:50:00,75.1,73.3,29.82,ENE,68,5.0,-999.0,94,0.00,,,0.13,Wunderground v.1.15,2013-10-08 00:50:00,
2013-10-07 20:55:00,74.8,73.0,29.82,NE,45,5.0,-999.0,94,0.00,,,0.13,Wunderground v.1.15,2013-10-08 00:55:00,
2013-10-07 21:00:00,74.8,73.0,29.82,NE,45,5.0,-999.0,94,0.00,,,0.13,Wunderground v.1.15,2013-10-08 01:00:00,
2013-10-07 21:05:00,74.8,73.0,29.82,NE,45,5.0,-999.0,94,0.00,,,0.13,Wunderground v.1.15,2013-10-08 01:05:00,
2013-10-07 21:10:00,74.8,73.0,29.83,ENE,68,4.0,-999.0,94,0.00,,,0.13,Wunderground v.1.15,2013-10-08 01:10:00,
2013-10-07 21:15:00,74.8,73.0,29.83,ENE,68,4.0,-999.0,94,0.00,,,0.13,Wunderground v.1.15,2013-10-08 01:15:00,
2013-10-07 21:20:00,74.8,73.0,29.83,ENE,68,4.0,-999.0,94,0.00,,,0.13,Wunderground v.1.15,2013-10-08 01:20:00,
2013-10-07 21:25:00,74.7,72.5,29.83,NE,45,4.0,-999.0,93,0.00,,,0.13,Wunderground v.1.15,2013-10-08 01:25:00,
2013-10-07 21:30:00,74.7,72.5,29.83,NE,45,4.0,-999.0,93,0.00,,,0.13,Wunderground v.1.15,2013-10-08 01:30:00,
2013-10-07 21:35:00,74.7,72.5,29.83,NE,45,4.0,-999.0,93,0.00,,,0.13,Wunderground v.1.15,2013-10-08 01:35:00,
2013-10-07 21:40:00,75.0,72.8,29.84,East,90,2.0,-999.0,93,0.00,,,0.13,Wunderground v.1.15,2013-10-08 01:40:00,
2013-10-07 21:45:00,75.0,72.8,29.84,East,90,2.0,-999.0,93,0.00,,,0.13,Wunderground v.1.15,2013-10-08 01:45:00,
2013-10-07 21:50:00,75.0,72.8,29.84,East,90,2.0,-999.0,93,0.00,,,0.13,Wunderground v.1.15,2013-10-08 01:50:00,
2013-10-07 21:55:00,75.2,73.0,29.84,NE,45,3.0,-999.0,93,0.00,,,0.13,Wunderground v.1.15,2013-10-08 01:55:00,
2013-10-07 22:00:00,75.2,73.0,29.84,NE,45,3.0,-999.0,93,0.00,,,0.13,Wunderground v.1.15,2013-10-08 02:00:00,
2013-10-07 22:05:00,75.2,73.0,29.84,NE,45,3.0,-999.0,93,0.00,,,0.13,Wunderground v.1.15,2013-10-08 02:05:00,
2013-10-07 22:10:00,75.2,73.4,29.84,NE,45,3.0,-999.0,94,0.00,,,0.13,Wunderground v.1.15,2013-10-08 02:10:00,
2013-10-07 22:15:00,75.2,73.4,29.84,NE,45,3.0,-999.0,94,0.00,,,0.13,Wunderground v.1.15,2013-10-08 02:15:00,
2013-10-07 22:20:00,75.2,73.4,29.84,NE,45,3.0,-999.0,94,0.00,,,0.13,Wunderground v.1.15,2013-10-08 02:20:00,
2013-10-07 22:25:00,75.7,73.5,29.84,ENE,68,2.0,-999.0,93,0.00,,,0.13,Wunderground v.1.15,2013-10-08 02:25:00,
2013-10-07 22:30:00,75.7,73.5,29.84,ENE,68,2.0,-999.0,93,0.00,,,0.13,Wunderground v.1.15,2013-10-08 02:30:00,
2013-10-07 22:35:00,75.7,73.5,29.84,ENE,68,2.0,-999.0,93,0.00,,,0.13,Wunderground v.1.15,2013-10-08 02:35:00,
2013-10-07 22:40:00,75.5,73.3,29.83,NE,45,4.0,-999.0,93,0.00,,,0.13,Wunderground v.1.15,2013-10-08 02:40:00,
2013-10-07 22:45:00,75.5,73.3,29.83,NE,45,4.0,-999.0,93,0.00,,,0.13,Wunderground v.1.15,2013-10-08 02:45:00,
2013-10-07 22:50:00,75.5,73.3,29.83,NE,45,4.0,-999.0,93,0.00,,,0.13,Wunderground v.1.15,2013-10-08 02:50:00,
2013-10-07 22:55:00,75.4,73.6,29.83,NE,45,3.0,-999.0,94,0.00,,,0.13,Wunderground v.1.15,2013-10-08 02:55:00,
2013-10-07 23:00:00,75.4,73.6,29.83,NE,45,3.0,-999.0,94,0.00,,,0.13,Wunderground v.1.15,2013-10-08 03:00:00,
2013-10-07 23:05:00,75.4,73.6,29.83,NE,45,3.0,-999.0,94,0.00,,,0.13,Wunderground v.1.15,2013-10-08 03:05:00,
2013-10-07 23:10:00,75.5,73.7,29.83,NNE,23,1.0,-999.0,94,0.00,,,0.13,Wunderground v.1.15,2013-10-08 03:10:00,
2013-10-07 23:15:00,75.5,73.7,29.83,NNE,23,1.0,-999.0,94,0.00,,,0.13,Wunderground v.1.15,2013-10-08 03:15:00,
2013-10-07 23:20:00,75.5,73.7,29.83,NNE,23,1.0,-999.0,94,0.00,,,0.13,Wunderground v.1.15,2013-10-08 03:20:00,
2013-10-07 23:25:00,75.8,73.9,29.83,NE,45,2.0,-999.0,94,0.00,,,0.13,Wunderground v.1.15,2013-10-08 03:25:00,
2013-10-07 23:30:00,75.8,73.9,29.83,NE,45,2.0,-999.0,94,0.00,,,0.13,Wunderground v.1.15,2013-10-08 03:30:00,
2013-10-07 23:35:00,75.8,73.9,29.83,NE,45,2.0,-999.0,94,0.00,,,0.13,Wunderground v.1.15,2013-10-08 03:35:00,
2013-10-07 23:40:00,75.8,73.6,29.83,NE,45,1.0,-999.0,93,0.00,,,0.13,Wunderground v.1.15,2013-10-08 03:40:00,
2013-10-07 23:45:00,75.8,73.6,29.83,NE,45,1.0,-999.0,93,0.00,,,0.13,Wunderground v.1.15,2013-10-08 03:45:00,
2013-10-07 23:50:00,75.8,73.6,29.83,NE,45,1.0,-999.0,93,0.00,,,0.13,Wunderground v.1.15,2013-10-08 03:50:00,
2013-10-07 23:55:00,75.7,73.5,29.83,NE,45,0.0,-999.0,93,0.00,,,0.13,Wunderground v.1.15,2013-10-08 03:55:00,